< < Back
Terminal Aerodrome Forecast


Current Version              Previous Versions:   1  2  3  4  5  6  7  8  9  

Terminal Aerodrome Forecast

800
FTUS42 KGSP 151500 AAA
TAFHKY
TAF AMD
KHKY 151543Z 1516/1612 00000KT P6SM OVC018
     FM151700 00000KT P6SM BKN035
     FM152300 00000KT P6SM VCSH OVC040
     FM160500 00000KT P6SM OVC130
     FM160800 00000KT P6SM BKN017=



Latest METAR

842
SAUS70 KWBC 160400 RRF
MTRHKY
METAR KHKY 160353Z AUTO 00000KT 5SM BR OVC007 19/19 A3015 RMK AO2 RAE06
SLP192 P0001 T01940189


USA.gov is the U.S. government's official web portal to all federal, state and local government web resources and services.